createdAt,value
2018-01-02T01:45:22.992Z,10.17
2018-01-02T02:56:17.175Z,14.10
2018-01-02T02:58:57.822Z,17.83
2018-01-02T03:01:31.464Z,15.30
2018-01-02T03:04:01.764Z,12.33
2018-01-02T03:06:40.703Z,9.70
2018-01-02T03:09:37.964Z,16.30
2018-01-02T03:15:03.282Z,23.27
2018-01-02T03:17:50.571Z,13.23
2018-01-02T03:20:23.031Z,20.17
2018-01-02T03:23:05.969Z,14.47
2018-01-02T03:28:35.958Z,12.97
2018-01-02T03:33:41.410Z,26.43
2018-01-02T03:50:57.068Z,13.70
2018-01-02T03:53:47.397Z,22.57
2018-01-02T03:56:29.186Z,22.53
2018-01-02T04:05:00.852Z,14.43
2018-01-02T04:43:45.865Z,15.20
2018-01-02T05:02:02.832Z,22.23
2018-01-02T05:26:07.209Z,9.73
2018-01-02T08:57:56.214Z,11.00
2018-01-02T09:00:23.902Z,18.67
2018-01-02T09:03:03.071Z,11.03
2018-01-02T09:05:32.229Z,8.33
2018-01-02T09:08:00.111Z,10.30
2018-01-02T09:10:34.057Z,10.30
2018-01-02T10:25:56.367Z,6.87
2018-01-02T10:37:31.350Z,16.73
2018-01-02T10:40:00.821Z,14.57
2018-01-02T10:45:21.993Z,6.83
2018-01-02T12:29:25.579Z,12.83
2018-01-02T12:32:12.347Z,18.57
2018-01-02T12:49:54.208Z,14.90
2018-01-02T13:16:59.225Z,12.63
2018-01-02T13:19:39.547Z,7.83
2018-01-02T13:22:18.745Z,13.20
2018-01-02T14:22:39.537Z,12.60
2018-01-02T14:25:07.332Z,8.20
2018-01-02T14:27:36.542Z,15.00
2018-01-02T14:30:07.889Z,13.70
2018-01-02T14:32:35.614Z,11.93
2018-01-02T14:35:03.389Z,12.03
2018-01-02T14:37:34.069Z,8.60
2018-01-02T14:40:05.078Z,11.00
2018-01-02T14:42:33.349Z,9.00
2018-01-02T14:45:02.326Z,19.27
2018-01-02T14:47:30.096Z,13.47
2018-01-02T14:49:57.833Z,12.10
2018-01-02T14:52:25.543Z,15.03
2018-01-02T14:54:54.727Z,8.93
2018-01-02T14:57:23.111Z,6.50
2018-01-02T14:59:50.760Z,6.47
2018-01-02T15:02:18.399Z,10.23
2018-01-02T15:04:46.134Z,15.83
2018-01-02T15:07:13.777Z,11.20
2018-01-02T15:09:41.491Z,11.40
2018-01-02T15:12:10.395Z,21.70
2018-01-02T15:14:38.145Z,14.00
2018-01-02T15:17:06.218Z,9.10
2018-01-02T15:19:35.226Z,11.47
2018-01-02T15:22:05.686Z,11.43
2018-01-02T15:24:33.437Z,12.80
2018-01-02T15:27:01.117Z,10.40
2018-01-02T15:29:28.877Z,17.90
2018-01-02T15:31:56.635Z,14.20
2018-01-02T15:34:24.258Z,14.40
2018-01-02T15:36:51.999Z,15.10
2018-01-02T15:39:19.841Z,23.47
2018-01-02T15:41:47.533Z,21.40
2018-01-02T15:44:15.483Z,26.40
2018-01-02T15:46:43.093Z,35.23
2018-01-02T15:49:11.262Z,29.97
2018-01-02T15:51:39.014Z,26.83
2018-01-02T15:54:06.817Z,22.33
2018-01-02T15:56:34.533Z,23.67
2018-01-02T15:59:02.254Z,22.30
2018-01-02T16:01:30.500Z,24.07
2018-01-02T16:03:58.677Z,12.00
2018-01-02T16:06:26.408Z,13.47
2018-01-02T16:08:54.704Z,9.03
2018-01-02T16:11:22.363Z,16.80
2018-01-02T16:13:51.674Z,18.27
2018-01-02T16:16:19.841Z,18.00
2018-01-02T16:18:54.557Z,10.07
2018-01-02T16:21:22.284Z,16.00
2018-01-02T16:23:52.959Z,18.17
2018-01-02T16:26:21.856Z,32.23
2018-01-02T16:28:49.829Z,14.07
2018-01-02T16:31:17.559Z,27.10
2018-01-02T16:33:45.259Z,24.20
2018-01-02T16:36:14.431Z,17.77
2018-01-02T16:38:46.997Z,15.80
2018-01-02T16:41:22.773Z,12.77
2018-01-02T16:43:51.754Z,22.30
2018-01-02T16:46:24.146Z,15.50
2018-01-02T16:48:53.550Z,20.97
2018-01-02T16:51:23.556Z,21.23
2018-01-02T16:53:51.671Z,26.37
2018-01-02T17:07:32.958Z,27.20
2018-01-02T18:07:47.099Z,25.07
2018-01-02T18:12:58.718Z,26.07
2018-01-02T18:15:26.825Z,20.73
2018-01-02T18:17:54.726Z,20.57
2018-01-02T18:20:23.721Z,28.20
2018-01-02T18:23:17.355Z,24.23
2018-01-02T18:28:35.815Z,38.30
2018-01-02T18:37:55.022Z,24.90
2018-01-02T18:40:27.055Z,35.90
2018-01-02T18:45:44.964Z,62.43
2018-01-02T18:48:18.512Z,43.70
2018-01-02T18:50:53.867Z,46.20
2018-01-02T18:53:28.492Z,32.43
2018-01-02T18:55:56.245Z,31.67
2018-01-02T18:58:24.047Z,31.23
2018-01-02T19:00:52.002Z,21.17
2018-01-02T19:03:19.778Z,18.40
2018-01-02T19:05:56.248Z,23.53
2018-01-02T19:08:37.422Z,19.30
2018-01-02T19:11:06.797Z,18.30
2018-01-02T19:13:37.688Z,20.97
2018-01-02T19:16:07.774Z,38.20
2018-01-02T19:21:51.660Z,20.07
2018-01-02T19:24:20.469Z,22.63
2018-01-02T19:26:48.324Z,17.20
2018-01-02T19:29:16.075Z,26.77
2018-01-02T19:31:47.719Z,27.43
2018-01-02T19:34:18.147Z,10.33
2018-01-02T19:36:46.346Z,23.80
2018-01-02T19:39:36.281Z,12.90
2018-01-02T21:17:42.964Z,13.20
2018-01-02T21:20:11.475Z,14.60
2018-01-02T21:22:40.461Z,17.77
2018-01-02T21:25:09.207Z,27.60
2018-01-02T21:27:37.900Z,17.90
2018-01-02T21:30:05.616Z,22.00
2018-01-02T21:32:35.116Z,17.83
2018-01-02T21:35:06.609Z,24.13
2018-01-02T21:37:34.907Z,18.30
2018-01-02T21:40:02.667Z,23.27
2018-01-02T21:42:31.785Z,22.10
